Time;durP1;ratioP1;P1;durP2;ratioP2;P2;SDS_P1;SDS_P2;PMS_P1;PMS_P2;Temp;Humidity;BMP_temperature;BMP_pressure;BME280_temperature;BME280_humidity;BME280_pressure;Samples;Min_cycle;Max_cycle;Signal;HPM_P1;HPM_P2
2022/05/11 00:00:08;;;;;;;4.77;4.37;;;21.60;61.60;;;;;;5054573;28;20453;-73
2022/05/11 00:02:38;;;;;;;5.23;4.57;;;21.60;62.20;;;;;;5054794;28;20458;-72
2022/05/11 00:05:05;;;;;;;8.03;4.90;;;21.50;62.30;;;;;;5053937;28;20961;-72
2022/05/11 00:07:32;;;;;;;6.57;5.10;;;21.50;62.90;;;;;;5054085;28;20825;-72
2022/05/11 00:09:59;;;;;;;4.93;4.57;;;21.50;63.10;;;;;;5054011;28;20445;-72
2022/05/11 00:12:26;;;;;;;8.00;4.60;;;21.50;63.20;;;;;;5053519;28;20491;-72
2022/05/11 00:14:53;;;;;;;6.27;4.33;;;21.40;63.10;;;;;;5053936;28;20461;-72
2022/05/11 00:17:20;;;;;;;5.43;4.80;;;21.40;63.20;;;;;;5054138;28;20456;-72
2022/05/11 00:19:48;;;;;;;5.67;5.00;;;21.40;63.50;;;;;;5053824;28;20453;-72
2022/05/11 00:22:15;;;;;;;6.60;4.43;;;21.40;63.90;;;;;;5053877;28;20477;-72
2022/05/11 00:24:42;;;;;;;5.33;4.83;;;21.40;63.60;;;;;;5053613;28;20982;-72
2022/05/11 00:27:09;;;;;;;4.73;4.27;;;21.40;63.40;;;;;;5053647;28;20451;-72
2022/05/11 00:29:36;;;;;;;8.57;4.17;;;21.40;62.70;;;;;;5053630;28;20457;-73
2022/05/11 00:32:03;;;;;;;6.93;5.00;;;21.40;62.30;;;;;;5053610;28;20485;-72
2022/05/11 00:34:29;;;;;;;8.17;4.90;;;21.40;59.90;;;;;;5053431;28;20461;-72
2022/05/11 00:36:59;;;;;;;9.50;4.90;;;21.40;60.50;;;;;;5054184;28;20450;-72
2022/05/11 00:39:26;;;;;;;4.67;4.03;;;21.30;61.90;;;;;;5053939;28;20478;-72
2022/05/11 00:41:53;;;;;;;8.13;4.30;;;21.40;62.70;;;;;;5053546;28;20852;-72
2022/05/11 00:44:20;;;;;;;5.27;4.30;;;21.30;63.00;;;;;;5053820;28;20461;-72
2022/05/11 00:46:56;;;;;;;8.13;4.50;;;21.30;63.50;;;;;;5053753;28;20460;-72
2022/05/11 00:49:36;;;;;;;8.43;4.80;;;21.30;63.50;;;;;;5054334;28;20493;-72
2022/05/11 00:52:08;;;;;;;5.80;5.20;;;21.30;60.10;;;;;;5053926;28;20521;-72
2022/05/11 00:54:40;;;;;;;6.57;4.93;;;21.30;59.70;;;;;;5053751;28;20456;-72
2022/05/11 00:57:12;;;;;;;11.63;5.27;;;21.20;59.40;;;;;;5053505;28;20441;-72
2022/05/11 00:59:45;;;;;;;6.43;5.47;;;21.20;59.70;;;;;;5053557;28;20496;-72
2022/05/11 01:02:13;;;;;;;5.10;4.60;;;21.20;60.30;;;;;;5053850;28;20477;-72
2022/05/11 01:04:42;;;;;;;4.70;4.17;;;21.20;59.30;;;;;;5053391;28;20448;-72
2022/05/11 01:07:12;;;;;;;5.83;4.43;;;21.20;59.10;;;;;;5053643;28;20450;-72
2022/05/11 01:09:40;;;;;;;5.63;4.60;;;21.20;59.20;;;;;;5053927;28;20445;-72
2022/05/11 01:12:10;;;;;;;8.93;4.80;;;21.20;59.50;;;;;;5055610;28;20488;-72
2022/05/11 01:14:40;;;;;;;5.90;5.03;;;21.20;59.70;;;;;;5057364;28;20438;-72
2022/05/11 01:17:07;;;;;;;4.63;4.03;;;21.20;58.90;;;;;;5057511;28;20511;-72
2022/05/11 01:19:39;;;;;;;10.17;5.27;;;21.10;58.70;;;;;;5057336;28;20465;-72
2022/05/11 01:22:14;;;;;;;10.27;5.17;;;21.10;58.50;;;;;;5057486;28;20465;-72
2022/05/11 01:24:44;;;;;;;6.23;4.57;;;21.00;58.70;;;;;;5057258;28;20434;-72
2022/05/11 01:27:30;;;;;;;10.10;5.57;;;21.00;59.20;;;;;;5056980;28;20456;-72
2022/05/11 01:29:59;;;;;;;6.13;5.00;;;21.00;59.30;;;;;;5057331;28;20448;-72
2022/05/11 01:32:27;;;;;;;8.57;4.50;;;20.90;58.70;;;;;;5057175;28;20500;-72
2022/05/11 01:34:59;;;;;;;10.53;4.77;;;20.90;58.60;;;;;;5056941;28;20449;-72
2022/05/11 01:37:27;;;;;;;21.93;5.00;;;20.90;58.60;;;;;;5057063;28;20461;-72
2022/05/11 01:39:55;;;;;;;8.80;4.20;;;20.80;58.50;;;;;;5056782;28;20822;-72
2022/05/11 01:42:21;;;;;;;8.90;5.10;;;20.80;58.60;;;;;;5057287;28;20511;-72
2022/05/11 01:44:48;;;;;;;5.83;4.73;;;20.80;58.80;;;;;;5057745;28;20465;-72
2022/05/11 01:47:15;;;;;;;7.10;4.23;;;20.80;59.10;;;;;;5057425;28;20829;-72
2022/05/11 01:49:41;;;;;;;5.73;4.60;;;20.80;59.10;;;;;;5057370;28;20456;-72
2022/05/11 01:52:08;;;;;;;6.40;4.87;;;20.70;58.60;;;;;;5057233;28;21003;-72
2022/05/11 01:54:35;;;;;;;9.07;5.57;;;20.70;58.80;;;;;;5057076;28;20476;-72
2022/05/11 01:57:04;;;;;;;5.03;4.30;;;20.60;59.00;;;;;;5056424;28;20472;-72
2022/05/11 01:59:30;;;;;;;7.10;4.80;;;20.70;59.10;;;;;;5056664;28;20495;-72
2022/05/11 02:01:57;;;;;;;5.93;4.67;;;20.70;59.50;;;;;;5056505;28;20472;-72
2022/05/11 02:09:52;;;;;;;9.80;4.90;;;20.60;59.40;;;;;;5056615;28;20490;-72
2022/05/11 02:12:20;;;;;;;7.03;4.97;;;20.50;59.50;;;;;;5056332;28;20496;-72
2022/05/11 02:14:47;;;;;;;13.03;5.10;;;20.50;59.70;;;;;;5056050;28;20954;-72
2022/05/11 02:17:14;;;;;;;12.60;4.60;;;20.40;59.50;;;;;;5056071;28;20801;-72
2022/05/11 02:19:41;;;;;;;7.27;4.70;;;20.40;59.50;;;;;;5055718;28;20450;-72
2022/05/11 02:22:09;;;;;;;6.37;5.20;;;20.30;59.80;;;;;;5055754;28;20540;-73
2022/05/11 02:24:35;;;;;;;8.43;5.20;;;20.30;60.00;;;;;;5055300;28;20532;-72
2022/05/11 02:27:03;;;;;;;8.10;4.37;;;20.30;59.80;;;;;;5056128;28;20454;-70
2022/05/11 02:29:32;;;;;;;8.53;4.40;;;20.30;59.50;;;;;;5056029;28;20446;-72
2022/05/11 02:31:59;;;;;;;4.83;4.20;;;20.30;59.50;;;;;;5055774;28;20833;-72
2022/05/11 02:37:10;;;;;;;8.13;4.23;;;20.10;59.40;;;;;;5055679;28;20452;-72
2022/05/11 02:39:36;;;;;;;8.77;4.87;;;20.10;59.50;;;;;;5055996;28;20457;-72
2022/05/11 02:42:04;;;;;;;10.80;4.73;;;20.10;59.60;;;;;;5055900;28;20472;-72
2022/05/11 02:44:32;;;;;;;6.03;4.50;;;20.00;59.90;;;;;;5055785;28;20469;-72
2022/05/11 02:46:59;;;;;;;5.10;4.37;;;20.00;59.90;;;;;;5055892;28;20461;-72
2022/05/11 02:49:25;;;;;;;8.97;5.00;;;20.00;59.90;;;;;;5055693;28;20454;-71
2022/05/11 02:51:52;;;;;;;11.13;5.27;;;20.00;60.40;;;;;;5055734;28;20477;-72
2022/05/11 02:54:20;;;;;;;4.67;4.00;;;20.00;60.90;;;;;;5055709;28;20504;-72
2022/05/11 02:56:47;;;;;;;6.10;5.03;;;19.90;61.60;;;;;;5055428;28;20453;-72
2022/05/11 02:59:14;;;;;;;6.47;5.37;;;19.90;62.30;;;;;;5055435;28;21001;-72
2022/05/11 03:01:42;;;;;;;5.20;4.70;;;19.90;62.70;;;;;;5055363;28;20461;-72
2022/05/11 03:04:09;;;;;;;8.03;4.90;;;19.90;63.00;;;;;;5055276;28;20442;-71
2022/05/11 03:06:35;;;;;;;9.90;5.50;;;19.80;63.40;;;;;;5055131;28;20457;-72
2022/05/11 03:09:03;;;;;;;9.93;5.13;;;19.80;63.60;;;;;;5055148;28;20448;-72
2022/05/11 03:11:29;;;;;;;6.67;4.73;;;19.80;63.90;;;;;;5055243;28;20469;-72
2022/05/11 03:13:56;;;;;;;7.97;4.93;;;19.70;64.20;;;;;;5055032;28;20481;-72
2022/05/11 03:16:23;;;;;;;6.13;5.57;;;19.70;64.70;;;;;;5054985;28;20473;-72
2022/05/11 03:18:51;;;;;;;6.87;5.80;;;19.70;65.80;;;;;;5055018;28;20803;-72
2022/05/11 03:21:17;;;;;;;6.57;5.53;;;19.60;65.00;;;;;;5055089;28;20484;-72
2022/05/11 03:23:44;;;;;;;7.53;5.50;;;19.60;65.40;;;;;;5055222;28;20457;-72
2022/05/11 03:26:14;;;;;;;6.47;5.00;;;19.60;65.70;;;;;;5055067;28;20450;-72
2022/05/11 03:28:41;;;;;;;8.43;6.30;;;19.60;65.90;;;;;;5055015;28;20790;-72
2022/05/11 03:31:08;;;;;;;7.67;6.00;;;19.50;66.10;;;;;;5054811;28;20991;-72
2022/05/11 03:36:20;;;;;;;5.77;4.83;;;19.50;66.60;;;;;;5055282;28;20802;-70
2022/05/11 03:38:47;;;;;;;8.20;5.50;;;19.40;66.60;;;;;;5054691;28;20476;-72
2022/05/11 03:41:14;;;;;;;6.63;5.30;;;19.40;66.70;;;;;;5053723;28;20469;-72
2022/05/11 03:43:41;;;;;;;6.17;5.47;;;19.40;66.90;;;;;;5054559;28;20453;-72
2022/05/11 03:46:08;;;;;;;11.80;6.40;;;19.40;66.90;;;;;;5054988;28;20458;-72
2022/05/11 03:48:35;;;;;;;7.77;5.80;;;19.40;67.00;;;;;;5054679;28;20442;-72
2022/05/11 03:51:02;;;;;;;9.20;5.97;;;19.40;67.00;;;;;;5054469;28;20480;-72
2022/05/11 03:53:30;;;;;;;5.70;5.10;;;19.40;67.10;;;;;;5054427;28;20486;-72
2022/05/11 03:55:56;;;;;;;9.20;6.60;;;19.30;67.10;;;;;;5054549;28;20458;-72
2022/05/11 03:58:23;;;;;;;6.30;5.80;;;19.20;67.20;;;;;;5054211;28;20445;-72
2022/05/11 04:00:50;;;;;;;11.30;6.10;;;19.20;67.40;;;;;;5054257;28;20511;-72
2022/05/11 04:03:17;;;;;;;6.20;5.60;;;19.20;67.70;;;;;;5054251;28;20441;-71
2022/05/11 04:05:44;;;;;;;6.90;6.20;;;19.10;68.00;;;;;;5054129;28;20967;-72
2022/05/11 04:08:11;;;;;;;16.80;6.87;;;19.10;68.00;;;;;;5053855;28;20457;-72
2022/05/11 04:10:39;;;;;;;9.27;6.57;;;19.10;68.20;;;;;;5054611;28;20472;-72
2022/05/11 04:13:06;;;;;;;7.63;6.33;;;19.10;68.40;;;;;;5054086;28;20496;-72
2022/05/11 04:15:33;;;;;;;8.57;6.27;;;19.10;68.80;;;;;;5054018;28;20952;-72
2022/05/11 04:17:59;;;;;;;10.57;6.40;;;19.10;69.00;;;;;;5054489;28;20454;-72
2022/05/11 04:20:26;;;;;;;7.50;6.00;;;19.10;69.30;;;;;;5054409;28;20457;-72
2022/05/11 04:22:54;;;;;;;8.60;6.13;;;19.10;69.50;;;;;;5054042;28;20477;-72
2022/05/11 04:25:23;;;;;;;11.17;6.43;;;19.10;69.80;;;;;;5054383;28;20453;-72
2022/05/11 04:27:51;;;;;;;8.10;6.70;;;19.10;69.80;;;;;;5054252;28;20461;-72
2022/05/11 04:30:20;;;;;;;10.23;5.90;;;19.10;70.00;;;;;;5053916;28;20967;-72
2022/05/11 04:32:47;;;;;;;8.50;6.50;;;19.10;70.10;;;;;;5054138;28;20477;-73
2022/05/11 04:35:14;;;;;;;5.33;4.73;;;19.20;70.50;;;;;;5061179;28;20450;-73
2022/05/11 04:37:41;;;;;;;8.17;4.77;;;19.20;67.80;;;;;;5069590;28;20430;-71
2022/05/11 04:40:11;;;;;;;10.47;6.90;;;19.30;67.40;;;;;;5074468;28;20456;-71
2022/05/11 04:42:37;;;;;;;11.90;6.50;;;19.40;68.20;;;;;;5067833;28;20480;-71
2022/05/11 04:45:07;;;;;;;13.17;6.40;;;19.40;68.20;;;;;;5060232;28;20460;-68
2022/05/11 04:47:33;;;;;;;8.40;5.63;;;19.50;68.40;;;;;;5062729;28;20449;-69
2022/05/11 04:50:00;;;;;;;15.70;7.10;;;19.50;67.20;;;;;;5064489;28;20464;-69
2022/05/11 04:52:27;;;;;;;9.47;6.20;;;19.50;67.70;;;;;;5068548;28;20468;-67
2022/05/11 04:54:54;;;;;;;13.20;5.53;;;19.50;67.70;;;;;;5068638;28;20482;-69
2022/05/11 04:57:21;;;;;;;14.53;7.13;;;19.60;69.10;;;;;;5068881;28;20536;-68
2022/05/11 04:59:49;;;;;;;15.43;6.40;;;19.50;67.90;;;;;;5068648;28;20863;-68
2022/05/11 05:02:20;;;;;;;16.13;7.33;;;19.50;67.90;;;;;;5067665;28;20476;-67
2022/05/11 05:04:47;;;;;;;17.83;7.70;;;19.50;68.00;;;;;;5068330;28;20437;-68
2022/05/11 05:07:14;;;;;;;13.93;8.20;;;19.50;67.60;;;;;;5068739;28;20449;-68
2022/05/11 05:09:42;;;;;;;14.80;6.90;;;19.50;67.30;;;;;;5067364;28;20452;-67
2022/05/11 05:12:10;;;;;;;17.20;7.53;;;19.40;66.90;;;;;;5066798;28;20465;-67
2022/05/11 05:14:37;;;;;;;20.77;8.20;;;19.40;67.00;;;;;;5067107;28;20484;-68
2022/05/11 05:17:08;;;;;;;12.53;7.40;;;19.40;67.80;;;;;;5066954;28;20956;-67
2022/05/11 05:19:39;;;;;;;16.33;7.63;;;19.40;69.20;;;;;;5066607;28;20483;-67
2022/05/11 05:22:06;;;;;;;19.03;7.13;;;19.40;67.90;;;;;;5067137;28;20469;-67
2022/05/11 05:24:32;;;;;;;16.63;6.77;;;19.40;68.60;;;;;;5066614;28;20453;-67
2022/05/11 05:27:00;;;;;;;16.93;7.03;;;19.40;68.50;;;;;;5067223;28;20445;-68
2022/05/11 05:32:12;;;;;;;18.97;7.63;;;19.50;69.20;;;;;;5067086;28;20477;-67
2022/05/11 05:34:40;;;;;;;21.53;8.23;;;19.50;69.10;;;;;;5066906;28;20488;-67
2022/05/11 05:37:06;;;;;;;18.73;7.73;;;19.50;69.00;;;;;;5061852;28;20461;-67
2022/05/11 05:39:33;;;;;;;20.27;7.70;;;19.50;68.30;;;;;;5059077;28;20453;-68
2022/05/11 05:42:00;;;;;;;19.80;8.03;;;19.60;68.10;;;;;;5066964;28;20475;-67
2022/05/11 05:44:31;;;;;;;24.67;8.80;;;19.60;68.20;;;;;;5067771;28;20458;-68
2022/05/11 05:47:02;;;;;;;24.20;9.40;;;19.60;68.20;;;;;;5065356;28;20433;-67
2022/05/11 05:49:30;;;;;;;19.07;7.20;;;19.70;68.30;;;;;;5062518;28;20464;-66
2022/05/11 05:51:59;;;;;;;21.23;8.60;;;19.70;67.80;;;;;;5066990;28;20465;-68
2022/05/11 05:54:25;;;;;;;26.20;9.30;;;19.80;68.10;;;;;;5067585;28;20492;-66
2022/05/11 05:56:52;;;;;;;23.67;8.03;;;19.80;68.30;;;;;;5067689;28;20865;-66
2022/05/11 05:59:19;;;;;;;33.73;8.63;;;19.80;67.90;;;;;;5067996;28;20917;-68
2022/05/11 06:01:46;;;;;;;23.30;8.00;;;19.80;67.80;;;;;;5068151;28;20480;-65
2022/05/11 06:04:13;;;;;;;28.57;8.90;;;19.80;67.90;;;;;;5067833;28;20453;-67
2022/05/11 06:06:39;;;;;;;13.93;7.60;;;19.90;68.20;;;;;;5067958;28;20855;-67
2022/05/11 06:09:09;;;;;;;15.33;7.23;;;19.80;67.40;;;;;;5066656;28;20468;-67
2022/05/11 06:11:36;;;;;;;14.60;6.83;;;19.70;66.90;;;;;;5068282;28;20504;-67
2022/05/11 06:14:03;;;;;;;15.03;7.40;;;19.70;66.60;;;;;;5067381;28;20481;-67
2022/05/11 06:16:31;;;;;;;14.60;7.10;;;19.70;66.50;;;;;;5067951;28;20461;-67
2022/05/11 06:18:58;;;;;;;10.17;5.63;;;19.80;66.30;;;;;;5067990;28;20445;-66
2022/05/11 06:21:25;;;;;;;12.53;5.90;;;19.80;66.40;;;;;;5067222;28;20476;-67
2022/05/11 06:23:52;;;;;;;16.00;5.73;;;19.90;66.00;;;;;;5068873;28;20933;-66
2022/05/11 06:26:20;;;;;;;11.47;5.27;;;20.00;65.30;;;;;;5067570;28;20505;-67
2022/05/11 06:28:47;;;;;;;9.47;5.23;;;20.10;65.50;;;;;;5067728;28;20445;-67
2022/05/11 06:31:15;;;;;;;9.33;5.83;;;20.20;64.80;;;;;;5067525;28;20480;-66
2022/05/11 06:33:45;;;;;;;7.63;4.30;;;20.20;64.10;;;;;;5068855;28;20478;-66
2022/05/11 06:36:12;;;;;;;14.83;6.27;;;20.30;64.30;;;;;;5067142;28;20529;-67
2022/05/11 06:38:39;;;;;;;9.03;4.60;;;20.30;63.10;;;;;;5065791;28;20441;-66
2022/05/11 06:41:10;;;;;;;8.67;4.57;;;20.40;63.00;;;;;;5065494;28;20846;-67
2022/05/11 06:43:38;;;;;;;11.23;5.17;;;20.40;63.30;;;;;;5062685;28;20465;-67
2022/05/11 06:46:05;;;;;;;7.30;4.70;;;20.40;61.90;;;;;;5063942;28;20445;-66
2022/05/11 06:48:33;;;;;;;12.00;5.70;;;20.50;62.80;;;;;;5061680;28;20488;-66
2022/05/11 06:51:00;;;;;;;4.93;4.37;;;20.50;62.20;;;;;;5062927;28;20470;-67
2022/05/11 06:53:27;;;;;;;11.37;4.60;;;20.60;62.70;;;;;;5061485;28;20445;-66
2022/05/11 07:01:23;;;;;;;5.47;4.53;;;20.80;62.50;;;;;;5063389;28;20445;-66
2022/05/11 07:03:50;;;;;;;7.17;3.87;;;20.90;62.30;;;;;;5065112;28;20449;-67
2022/05/11 07:06:17;;;;;;;9.90;4.07;;;21.00;61.50;;;;;;5066660;28;20442;-66
2022/05/11 07:08:45;;;;;;;7.50;3.30;;;21.10;59.50;;;;;;5065846;28;20492;-66
2022/05/11 07:14:00;;;;;;;4.37;3.40;;;21.30;57.40;;;;;;5062247;28;20465;-66
2022/05/11 07:16:28;;;;;;;4.83;2.70;;;21.20;57.90;;;;;;5064835;28;20458;-67
2022/05/11 07:18:54;;;;;;;8.00;2.87;;;21.20;57.70;;;;;;5064265;28;20500;-67
2022/05/11 07:21:21;;;;;;;4.30;3.07;;;21.40;59.00;;;;;;5059927;28;20473;-68
2022/05/11 07:23:48;;;;;;;3.73;2.70;;;21.40;57.00;;;;;;5059211;28;20445;-67
2022/05/11 07:26:15;;;;;;;3.10;2.83;;;21.40;56.60;;;;;;5059982;28;20454;-67
2022/05/11 07:28:41;;;;;;;3.77;2.90;;;21.50;57.50;;;;;;5060931;28;20454;-67
2022/05/11 07:31:09;;;;;;;4.93;2.27;;;21.60;58.20;;;;;;5060065;28;20503;-67
2022/05/11 07:33:36;;;;;;;4.50;2.57;;;21.70;57.20;;;;;;5059328;28;20458;-67
2022/05/11 07:36:04;;;;;;;5.00;2.43;;;21.70;56.30;;;;;;5059925;28;20880;-67
2022/05/11 07:38:32;;;;;;;3.50;2.60;;;21.80;57.10;;;;;;5060740;28;20465;-67
2022/05/11 07:40:58;;;;;;;3.50;2.63;;;21.90;56.20;;;;;;5060086;28;20565;-67
2022/05/11 07:43:25;;;;;;;2.67;2.47;;;22.00;56.40;;;;;;5060907;28;20469;-67
2022/05/11 07:45:52;;;;;;;7.60;3.17;;;22.10;56.00;;;;;;5059881;28;20437;-67
2022/05/11 07:48:21;;;;;;;5.57;2.80;;;22.10;56.10;;;;;;5058529;28;20460;-67
2022/05/11 07:50:48;;;;;;;5.03;3.10;;;22.20;56.00;;;;;;5060518;28;20909;-67
2022/05/11 07:53:14;;;;;;;3.00;2.70;;;22.30;56.40;;;;;;5061094;28;20458;-67
2022/05/11 07:55:41;;;;;;;2.90;2.60;;;22.40;55.20;;;;;;5060826;28;20512;-67
2022/05/11 08:00:55;;;;;;;4.43;2.60;;;22.60;56.50;;;;;;5061052;28;20533;-67
2022/05/11 08:03:24;;;;;;;11.80;3.47;;;22.70;54.60;;;;;;5061718;28;20445;-67
2022/05/11 08:05:51;;;;;;;3.70;2.80;;;22.70;54.60;;;;;;5059845;28;20441;-67
2022/05/11 08:08:17;;;;;;;5.50;3.13;;;22.80;54.70;;;;;;5060172;28;20438;-67
2022/05/11 08:10:46;;;;;;;4.50;2.60;;;22.90;55.20;;;;;;5060150;28;20445;-67
2022/05/11 08:13:13;;;;;;;21.20;3.87;;;23.00;53.80;;;;;;5060415;28;20457;-67
2022/05/11 08:15:43;;;;;;;5.30;3.67;;;23.10;54.00;;;;;;5059466;28;20512;-67
2022/05/11 08:18:10;;;;;;;6.47;3.30;;;23.10;52.80;;;;;;5058391;28;20831;-67
2022/05/11 08:20:41;;;;;;;4.33;3.77;;;23.20;53.10;;;;;;5060621;28;20453;-67
2022/05/11 08:23:09;;;;;;;5.77;4.00;;;23.20;52.60;;;;;;5059861;28;20816;-67
2022/05/11 08:25:38;;;;;;;6.67;4.10;;;23.20;52.90;;;;;;5058991;28;20945;-67
2022/05/11 08:28:10;;;;;;;5.83;4.33;;;23.20;52.30;;;;;;5057326;28;20901;-67
2022/05/11 08:33:22;;;;;;;7.83;3.90;;;23.30;53.30;;;;;;5059936;28;20456;-67
2022/05/11 08:35:52;;;;;;;9.90;4.87;;;23.50;53.10;;;;;;5061687;28;20556;-67
2022/05/11 08:38:19;;;;;;;8.00;4.00;;;23.60;52.70;;;;;;5063158;28;20453;-67
2022/05/11 08:40:51;;;;;;;6.00;3.77;;;23.70;51.50;;;;;;5062802;28;20445;-67
2022/05/11 08:43:20;;;;;;;4.47;3.40;;;23.80;50.60;;;;;;5059648;28;20461;-67
2022/05/11 08:45:52;;;;;;;3.43;2.70;;;23.90;50.90;;;;;;5060182;28;20434;-68
2022/05/11 08:48:28;;;;;;;4.20;3.43;;;23.80;50.90;;;;;;5059565;28;20476;-68
2022/05/11 08:50:56;;;;;;;5.27;3.27;;;23.90;49.90;;;;;;5062360;28;20434;-67
2022/05/11 08:53:37;;;;;;;6.47;3.70;;;23.80;50.60;;;;;;5062206;28;20460;-68
2022/05/11 08:56:12;;;;;;;8.00;4.63;;;23.80;50.60;;;;;;5059963;28;20473;-68
2022/05/11 08:58:46;;;;;;;4.80;3.30;;;23.80;51.40;;;;;;5059234;28;20935;-68
2022/05/11 09:01:21;;;;;;;7.43;3.70;;;24.00;50.20;;;;;;5060301;28;20482;-68
2022/05/11 09:03:52;;;;;;;4.40;3.30;;;24.10;49.20;;;;;;5065679;28;20430;-68
2022/05/11 09:06:24;;;;;;;7.27;3.33;;;24.30;50.60;;;;;;5065994;28;20426;-68
2022/05/11 09:08:52;;;;;;;5.60;4.17;;;24.50;50.40;;;;;;5064602;28;20460;-67
2022/05/11 09:11:27;;;;;;;5.03;4.40;;;24.60;50.20;;;;;;5064691;28;20493;-67
2022/05/11 09:13:53;;;;;;;7.67;4.30;;;24.70;49.60;;;;;;5065944;28;20433;-67
2022/05/11 09:16:23;;;;;;;6.90;3.60;;;24.70;48.20;;;;;;5064448;28;20496;-67
2022/05/11 09:18:50;;;;;;;3.93;2.80;;;24.90;48.00;;;;;;5064807;28;20453;-67
2022/05/11 09:21:29;;;;;;;5.60;4.20;;;25.10;48.40;;;;;;5064523;28;20474;-67
2022/05/11 09:24:09;;;;;;;8.60;3.87;;;25.10;49.40;;;;;;5065319;28;20458;-67
2022/05/11 09:26:38;;;;;;;6.93;4.20;;;25.20;48.10;;;;;;5065276;28;20444;-67
2022/05/11 09:29:20;;;;;;;6.60;3.97;;;25.30;48.00;;;;;;5065927;28;20995;-67
2022/05/11 09:31:50;;;;;;;7.77;3.77;;;25.30;48.30;;;;;;5065051;28;20462;-68
2022/05/11 09:34:26;;;;;;;11.10;3.13;;;25.30;48.60;;;;;;5068868;28;20437;-68
2022/05/11 09:36:58;;;;;;;7.13;3.77;;;25.40;48.30;;;;;;5068671;28;20448;-68
2022/05/11 09:39:27;;;;;;;6.07;3.60;;;25.60;49.20;;;;;;5067970;28;20437;-68
2022/05/11 09:42:01;;;;;;;9.23;3.80;;;25.80;48.20;;;;;;5067922;28;20500;-68
2022/05/11 09:44:40;;;;;;;3.30;3.00;;;25.90;46.80;;;;;;5067798;28;20482;-68
2022/05/11 09:47:24;;;;;;;3.27;2.97;;;25.90;46.40;;;;;;5063269;28;20434;-68
2022/05/11 09:49:52;;;;;;;5.40;3.30;;;26.00;46.60;;;;;;5063403;28;20491;-67
2022/05/11 09:52:32;;;;;;;6.10;3.60;;;26.20;46.80;;;;;;5067484;28;20479;-67
2022/05/11 09:54:59;;;;;;;4.60;3.23;;;26.30;47.00;;;;;;5068176;28;20472;-66
2022/05/11 09:57:28;;;;;;;9.33;3.97;;;26.30;44.90;;;;;;5060838;28;20441;-67
2022/05/11 10:00:15;;;;;;;6.23;2.90;;;26.30;44.80;;;;;;5067447;28;20532;-66
2022/05/11 10:02:46;;;;;;;5.37;3.27;;;26.50;45.70;;;;;;5064512;28;20465;-67
2022/05/11 10:05:16;;;;;;;4.90;3.23;;;26.80;44.90;;;;;;5065989;28;20422;-67
2022/05/11 10:07:49;;;;;;;6.93;3.07;;;27.00;44.40;;;;;;5065834;28;20437;-66
2022/05/11 10:10:34;;;;;;;3.73;2.60;;;27.40;44.10;;;;;;5066663;28;20436;-66
2022/05/11 10:13:11;;;;;;;5.37;2.80;;;27.70;43.90;;;;;;5066387;28;21011;-67
2022/05/11 10:24:20;;;;;;;9.13;2.40;;;28.00;41.90;;;;;;5066513;28;20575;-67
2022/05/11 10:26:53;;;;;;;4.10;2.77;;;28.20;40.70;;;;;;5066393;28;20433;-67
2022/05/11 10:29:28;;;;;;;7.43;3.10;;;28.40;41.30;;;;;;5066596;28;20434;-67
2022/05/11 10:32:04;;;;;;;6.40;3.00;;;28.80;40.60;;;;;;5065820;28;20480;-67
2022/05/11 10:34:42;;;;;;;6.33;2.97;;;29.00;40.00;;;;;;5065730;28;20429;-67
2022/05/11 10:37:15;;;;;;;6.03;3.20;;;29.30;38.30;;;;;;5066439;28;20436;-67
2022/05/11 10:40:00;;;;;;;3.80;2.63;;;29.70;38.00;;;;;;5066192;28;20422;-67
2022/05/11 10:42:33;;;;;;;3.90;2.80;;;29.90;36.90;;;;;;5065913;28;20484;-67
2022/05/11 10:45:15;;;;;;;5.77;3.30;;;30.10;36.00;;;;;;5064891;28;20453;-67
2022/05/11 10:48:00;;;;;;;11.53;3.47;;;30.40;36.00;;;;;;5066315;28;20437;-67
2022/05/11 10:50:32;;;;;;;6.07;3.00;;;30.40;35.20;;;;;;5066384;28;20929;-67
2022/05/11 10:53:20;;;;;;;4.20;2.90;;;30.50;34.40;;;;;;5066777;28;20457;-66
2022/05/11 10:56:00;;;;;;;5.30;3.10;;;30.60;34.60;;;;;;5066096;28;20509;-66
2022/05/11 10:58:44;;;;;;;5.07;3.57;;;30.80;33.70;;;;;;5066373;28;20440;-67
2022/05/11 11:01:12;;;;;;;4.67;3.30;;;30.60;34.00;;;;;;5066353;28;20465;-67
2022/05/11 11:04:20;;;;;;;2.90;2.60;;;31.00;34.20;;;;;;5066565;28;20445;-67
2022/05/11 11:07:17;;;;;;;11.80;3.77;;;31.60;32.60;;;;;;5065949;28;20418;-67
2022/05/11 11:10:00;;;;;;;5.60;2.87;;;31.50;32.20;;;;;;5066392;28;20821;-67
2022/05/11 11:12:43;;;;;;;6.37;2.83;;;31.80;32.00;;;;;;5064858;28;20838;-68
2022/05/11 11:15:14;;;;;;;7.13;3.10;;;32.00;31.20;;;;;;5065758;28;20529;-68
2022/05/11 11:17:43;;;;;;;5.40;3.17;;;31.90;31.30;;;;;;5065593;28;20441;-67
2022/05/11 11:20:13;;;;;;;5.50;3.43;;;32.00;31.50;;;;;;5065799;28;20449;-67
2022/05/11 11:23:11;;;;;;;3.83;2.80;;;32.20;31.10;;;;;;5065724;28;20484;-67
2022/05/11 11:25:53;;;;;;;4.10;3.43;;;31.90;30.70;;;;;;5031584;28;21010;-67
2022/05/11 11:28:23;;;;;;;5.57;2.97;;;32.00;32.10;;;;;;5065213;28;20456;-67
2022/05/11 11:31:22;;;;;;;14.87;3.60;;;32.30;32.00;;;;;;5065042;28;20422;-67
2022/05/11 11:34:18;;;;;;;6.53;3.40;;;32.50;30.60;;;;;;5065037;28;20433;-66
2022/05/11 11:36:45;;;;;;;5.33;3.47;;;32.50;30.40;;;;;;5064574;28;20488;-67
2022/05/11 11:39:33;;;;;;;6.50;3.80;;;32.60;30.90;;;;;;5064632;28;20441;-67
2022/05/11 11:42:08;;;;;;;4.93;3.70;;;32.80;29.90;;;;;;5064780;28;20472;-67
2022/05/11 11:44:41;;;;;;;4.50;3.57;;;32.80;29.60;;;;;;5065741;28;20460;-67
2022/05/11 11:47:35;;;;;;;5.67;4.10;;;32.70;30.10;;;;;;5065843;28;20433;-67
2022/05/11 11:50:02;;;;;;;7.17;4.20;;;33.00;29.90;;;;;;5065391;28;20445;-67
2022/05/11 11:52:35;;;;;;;7.60;3.67;;;33.30;29.30;;;;;;5065266;28;20473;-67
2022/05/11 11:55:02;;;;;;;4.10;3.80;;;33.60;29.20;;;;;;5065117;28;20429;-67
2022/05/11 11:57:31;;;;;;;5.97;3.30;;;33.80;28.70;;;;;;5064038;28;20444;-67
2022/05/11 12:00:01;;;;;;;3.60;3.03;;;34.00;29.80;;;;;;5065110;28;20452;-67
2022/05/11 12:02:30;;;;;;;5.17;4.03;;;34.00;28.50;;;;;;5064295;28;20480;-67
2022/05/11 12:05:11;;;;;;;10.67;3.90;;;34.30;28.40;;;;;;5064668;28;20449;-67
2022/05/11 12:16:07;;;;;;;6.07;3.50;;;34.90;27.70;;;;;;5062582;28;21086;-67
2022/05/11 12:18:36;;;;;;;7.37;4.20;;;34.60;28.10;;;;;;5065500;28;20434;-67
2022/05/11 12:21:05;;;;;;;8.63;4.00;;;34.70;27.50;;;;;;5066407;28;20476;-67
2022/05/11 12:23:36;;;;;;;4.53;4.10;;;34.40;27.20;;;;;;5066816;28;20809;-67
2022/05/11 12:26:06;;;;;;;6.57;4.67;;;34.80;28.30;;;;;;5065821;28;20891;-67
2022/05/11 12:28:35;;;;;;;3.87;3.50;;;35.00;27.50;;;;;;5066652;28;20433;-67
2022/05/11 12:31:02;;;;;;;6.90;3.37;;;35.10;28.10;;;;;;5066759;28;20469;-67
2022/05/11 12:33:34;;;;;;;5.30;3.63;;;35.30;27.70;;;;;;5066439;28;20453;-68
2022/05/11 12:36:01;;;;;;;6.80;3.90;;;35.80;26.50;;;;;;5066330;28;20529;-68
2022/05/11 12:38:32;;;;;;;5.60;3.80;;;35.60;26.90;;;;;;5065697;28;20449;-66
2022/05/11 12:41:00;;;;;;;5.83;3.83;;;35.80;26.80;;;;;;5062546;28;20509;-67
2022/05/11 12:43:29;;;;;;;4.90;4.20;;;35.50;26.70;;;;;;5057556;28;20827;-67
2022/05/11 12:45:58;;;;;;;7.67;3.87;;;35.50;27.10;;;;;;5065458;28;20445;-67
2022/05/11 12:48:30;;;;;;;5.70;3.60;;;36.00;26.90;;;;;;5065410;28;20449;-67
2022/05/11 12:51:04;;;;;;;5.63;4.07;;;36.60;26.60;;;;;;5065614;28;20827;-67
2022/05/11 12:53:33;;;;;;;6.67;3.13;;;37.00;26.40;;;;;;5065276;28;20437;-68
2022/05/11 12:56:13;;;;;;;5.63;3.10;;;37.60;25.80;;;;;;5065395;28;20226;-68
2022/05/11 12:58:46;;;;;;;8.13;3.57;;;38.10;24.80;;;;;;5065680;28;20186;-68
2022/05/11 13:01:16;;;;;;;5.57;3.60;;;38.50;24.40;;;;;;5064871;28;20724;-67
2022/05/11 13:03:44;;;;;;;5.10;3.40;;;38.80;24.20;;;;;;5064940;28;20187;-68
2022/05/11 13:06:22;;;;;;;4.07;3.47;;;38.90;23.70;;;;;;5065121;28;20202;-68
2022/05/11 13:08:52;;;;;;;4.75;3.33;;;39.40;23.10;;;;;;5066586;28;20182;-68
2022/05/11 13:11:21;;;;;;;4.28;3.80;;;39.50;22.90;;;;;;5068038;28;20218;-68
2022/05/11 13:13:54;;;;;;;3.92;3.45;;;38.90;22.50;;;;;;5068508;28;20213;-68
2022/05/11 13:16:24;;;;;;;5.25;3.10;;;38.80;22.90;;;;;;5068669;28;20225;-67
2022/05/11 13:19:02;;;;;;;4.67;3.00;;;38.80;23.50;;;;;;5068162;28;20210;-68
2022/05/11 13:21:35;;;;;;;8.63;3.50;;;38.40;23.30;;;;;;5068885;28;20233;-68
2022/05/11 13:24:04;;;;;;;5.05;3.35;;;38.10;23.00;;;;;;5069529;28;20209;-68
2022/05/11 13:26:37;;;;;;;6.13;3.33;;;38.30;23.30;;;;;;5068574;28;20206;-68
2022/05/11 13:29:21;;;;;;;5.45;2.90;;;38.70;24.00;;;;;;5068997;28;20202;-68
2022/05/11 13:32:02;;;;;;;8.60;3.63;;;39.00;23.10;;;;;;5068698;28;20233;-68
2022/05/11 13:34:32;;;;;;;5.45;3.15;;;39.40;22.70;;;;;;5068744;28;20213;-68
2022/05/11 13:37:01;;;;;;;3.60;3.30;;;39.60;22.60;;;;;;5068939;28;20237;-69
2022/05/11 13:39:32;;;;;;;7.68;3.00;;;39.50;22.30;;;;;;5068789;28;20195;-68
2022/05/11 13:42:02;;;;;;;10.10;3.10;;;39.30;22.40;;;;;;5068801;28;20222;-68
2022/05/11 13:44:34;;;;;;;3.72;3.20;;;39.30;22.40;;;;;;5067621;28;20214;-68